Liberty, Washington
Current Conditions -  °F | °C
As of 3:53 AM on Friday 19 Dec 2014 (Local Time) from KELN Reporting Station
Haze Haze  
Wind Chill: 38°   Ceiling: 1500
Heat Index: 38°   Visibility: 4mi
Dew Point: 35°   Wind: 3mph
Humidity: 89%   Direction: 330°NNW
Pressure: 29.83"   Gusts: NA
Location:  47.3367°N, 121.023°W
Report Text: KELN 191153Z AUTO 33003KT 4SM BR FEW003 OVC015 03/02 A2983 RMK AO2 SLP111 60002 70006 T00330017 10033 20028 57005
Loading
Personal Weather Stations






























Interactive Weather Map New forecast layout! Learn more

10-Day Weather Forecast

Advertisements
Track Severe Weather on mobile